createdAt,value
2022-08-18T00:01:22.635Z,50.40
2022-08-18T00:03:56.367Z,50.30
2022-08-18T00:06:29.534Z,50.30
2022-08-18T00:09:04.567Z,50.30
2022-08-18T00:11:41.035Z,50.20
2022-08-18T00:14:21.691Z,50.30
2022-08-18T00:16:53.912Z,50.20
2022-08-18T00:19:45.380Z,50.20
2022-08-18T00:22:15.880Z,50.20
2022-08-18T00:24:51.507Z,50.30
2022-08-18T00:27:23.275Z,50.40
2022-08-18T00:29:54.165Z,50.50
2022-08-18T00:32:27.496Z,50.60
2022-08-18T00:34:55.669Z,50.70
2022-08-18T00:37:24.933Z,50.70
2022-08-18T00:39:54.066Z,50.70
2022-08-18T00:42:31.030Z,50.80
2022-08-18T00:45:05.624Z,50.80
2022-08-18T00:47:42.535Z,50.80
2022-08-18T00:50:42.743Z,50.90
2022-08-18T00:53:24.320Z,50.90
2022-08-18T00:55:54.417Z,50.90
2022-08-18T00:59:27.724Z,51.10
2022-08-18T01:02:05.285Z,51.00
2022-08-18T01:04:45.187Z,51.10
2022-08-18T01:07:25.620Z,51.20
2022-08-18T01:09:53.499Z,51.20
2022-08-18T01:12:45.469Z,51.30
2022-08-18T01:15:09.018Z,51.40
2022-08-18T01:18:22.508Z,51.40
2022-08-18T01:21:44.527Z,51.40
2022-08-18T01:24:14.747Z,51.50
2022-08-18T01:26:50.584Z,51.60
2022-08-18T01:29:20.291Z,51.70
2022-08-18T01:31:56.822Z,51.70
2022-08-18T01:34:28.546Z,51.70
2022-08-18T01:36:56.750Z,51.80
2022-08-18T01:41:11.010Z,51.80
2022-08-18T01:42:17.405Z,51.90
2022-08-18T01:44:51.195Z,51.90
2022-08-18T01:47:20.955Z,51.90
2022-08-18T01:49:48.443Z,52.00
2022-08-18T01:52:21.993Z,52.10
2022-08-18T01:54:51.563Z,52.00
2022-08-18T01:57:21.834Z,52.20
2022-08-18T01:59:49.197Z,52.10
2022-08-18T02:02:32.956Z,52.20
2022-08-18T02:05:10.416Z,52.20
2022-08-18T02:07:38.487Z,52.40
2022-08-18T02:10:12.108Z,52.30
2022-08-18T02:12:42.417Z,52.40
2022-08-18T02:15:11.271Z,52.40
2022-08-18T02:17:43.085Z,52.50
2022-08-18T02:20:16.795Z,52.40
2022-08-18T02:22:45.342Z,52.50
2022-08-18T02:25:14.503Z,52.50
2022-08-18T02:27:42.082Z,52.60
2022-08-18T02:30:13.816Z,52.70
2022-08-18T02:32:42.149Z,52.60
2022-08-18T02:35:12.133Z,52.70
2022-08-18T02:37:42.653Z,52.80
2022-08-18T02:40:14.881Z,52.80
2022-08-18T02:42:45.579Z,52.90
2022-08-18T02:45:14.476Z,52.80
2022-08-18T02:47:42.970Z,52.90
2022-08-18T02:50:14.107Z,52.90
2022-08-18T02:52:41.501Z,53.00
2022-08-18T02:55:12.577Z,53.00
2022-08-18T02:57:47.778Z,53.00
2022-08-18T03:00:18.887Z,53.00
2022-08-18T03:02:51.634Z,53.00
2022-08-18T03:05:20.006Z,53.10
2022-08-18T03:07:47.383Z,53.10
2022-08-18T03:10:33.243Z,53.10
2022-08-18T03:13:01.992Z,53.20
2022-08-18T03:15:29.801Z,53.30
2022-08-18T03:17:58.249Z,53.80
2022-08-18T03:20:30.125Z,53.20
2022-08-18T03:22:58.951Z,53.20
2022-08-18T03:25:26.204Z,53.20
2022-08-18T03:27:53.560Z,53.20
2022-08-18T03:30:23.628Z,53.20
2022-08-18T03:32:51.234Z,53.40
2022-08-18T03:35:18.732Z,53.50
2022-08-18T03:38:07.733Z,53.50
2022-08-18T03:40:35.575Z,53.50
2022-08-18T03:43:50.148Z,53.60
2022-08-18T03:45:55.668Z,53.60
2022-08-18T03:48:22.920Z,53.60
2022-08-18T03:50:50.277Z,53.80
2022-08-18T03:53:18.666Z,53.70
2022-08-18T03:55:47.248Z,53.90
2022-08-18T03:58:15.218Z,53.80
2022-08-18T04:00:42.568Z,54.00
2022-08-18T04:03:11.270Z,54.00
2022-08-18T04:05:41.672Z,53.90
2022-08-18T04:08:10.575Z,53.80
2022-08-18T04:10:38.098Z,53.70
2022-08-18T04:13:05.844Z,53.70
2022-08-18T04:15:33.471Z,53.70
2022-08-18T04:18:08.668Z,53.70
2022-08-18T04:20:36.343Z,53.70
2022-08-18T04:23:03.740Z,53.70
2022-08-18T04:25:39.011Z,53.70
2022-08-18T04:28:06.426Z,53.70
2022-08-18T04:30:33.767Z,53.70
2022-08-18T04:33:02.670Z,53.80
2022-08-18T04:35:33.528Z,53.80
2022-08-18T04:38:00.805Z,53.70
2022-08-18T04:40:28.157Z,53.60
2022-08-18T04:42:55.688Z,53.50
2022-08-18T04:45:22.925Z,53.50
2022-08-18T04:47:50.941Z,53.50
2022-08-18T04:50:18.557Z,53.60
2022-08-18T04:53:04.442Z,53.30
2022-08-18T04:55:31.697Z,53.20
2022-08-18T04:57:59.612Z,53.10
2022-08-18T05:00:27.225Z,53.00
2022-08-18T05:02:56.958Z,52.90
2022-08-18T05:05:24.556Z,52.90
2022-08-18T05:07:51.934Z,52.80
2022-08-18T05:10:19.314Z,52.80
2022-08-18T05:12:48.851Z,52.80
2022-08-18T05:15:18.909Z,52.80
2022-08-18T05:17:49.939Z,52.80
2022-08-18T05:20:18.479Z,52.80
2022-08-18T05:22:48.149Z,52.80
2022-08-18T05:25:16.301Z,52.90
2022-08-18T05:27:44.686Z,53.00
2022-08-18T05:30:13.592Z,52.90
2022-08-18T05:32:50.099Z,52.80
2022-08-18T05:35:44.763Z,52.70
2022-08-18T05:38:28.706Z,52.60
2022-08-18T05:41:20.905Z,52.50
2022-08-18T05:43:52.019Z,52.30
2022-08-18T05:46:39.104Z,52.40
2022-08-18T05:49:06.623Z,52.50
2022-08-18T05:51:45.942Z,52.50
2022-08-18T05:54:34.790Z,52.60
2022-08-18T05:57:10.089Z,52.50
2022-08-18T05:59:43.062Z,52.50
2022-08-18T06:02:47.207Z,52.40
2022-08-18T06:05:30.933Z,52.30
2022-08-18T06:08:06.123Z,52.30
2022-08-18T06:10:33.932Z,52.40
2022-08-18T06:13:03.233Z,52.40
2022-08-18T06:15:51.967Z,52.70
2022-08-18T06:18:56.413Z,52.50
2022-08-18T06:21:57.210Z,52.40
2022-08-18T06:25:02.121Z,52.00
2022-08-18T06:28:01.284Z,51.90
2022-08-18T06:31:09.978Z,51.80
2022-08-18T06:33:46.011Z,51.50
2022-08-18T06:36:48.322Z,51.10
2022-08-18T06:39:51.988Z,50.80
2022-08-18T06:42:32.655Z,50.60
2022-08-18T06:45:14.038Z,49.80
2022-08-18T06:48:15.303Z,50.00
2022-08-18T06:51:00.964Z,49.40
2022-08-18T06:54:06.207Z,49.40
2022-08-18T06:56:39.308Z,49.30
2022-08-18T06:59:18.582Z,49.20
2022-08-18T07:01:52.115Z,49.00
2022-08-18T07:04:44.189Z,48.60
2022-08-18T07:07:40.933Z,48.50
2022-08-18T07:10:35.839Z,48.40
2022-08-18T07:13:13.134Z,48.60
2022-08-18T07:15:41.603Z,47.90
2022-08-18T07:18:10.194Z,48.10
2022-08-18T07:20:55.489Z,48.30
2022-08-18T07:23:40.309Z,48.00
2022-08-18T07:26:17.542Z,47.40
2022-08-18T07:28:52.545Z,47.40
2022-08-18T07:31:42.926Z,47.10
2022-08-18T07:34:26.583Z,47.10
2022-08-18T07:37:23.944Z,47.30
2022-08-18T07:40:20.596Z,46.90
2022-08-18T07:43:01.140Z,46.50
2022-08-18T07:45:45.526Z,46.60
2022-08-18T07:48:40.088Z,46.80
2022-08-18T07:51:25.177Z,46.60
2022-08-18T07:54:45.024Z,46.60
2022-08-18T07:57:21.417Z,46.60
2022-08-18T08:00:02.629Z,46.60
2022-08-18T08:02:55.306Z,46.50
2022-08-18T08:05:44.520Z,46.50
2022-08-18T08:08:33.298Z,46.40
2022-08-18T08:11:33.852Z,46.40
2022-08-18T08:14:24.256Z,46.20
2022-08-18T08:17:11.291Z,46.10
2022-08-18T08:20:09.062Z,45.60
2022-08-18T08:23:00.341Z,45.30
2022-08-18T08:26:05.001Z,45.20
2022-08-18T08:28:41.276Z,44.60
2022-08-18T08:31:58.051Z,43.90
2022-08-18T08:34:31.434Z,43.50
2022-08-18T08:37:06.213Z,43.40
2022-08-18T08:40:20.526Z,43.30
2022-08-18T08:42:50.535Z,43.10
2022-08-18T08:45:36.681Z,42.50
2022-08-18T08:48:34.906Z,42.30
2022-08-18T08:51:33.555Z,42.70
2022-08-18T08:54:23.602Z,42.60
2022-08-18T08:56:56.481Z,42.30
2022-08-18T08:59:25.212Z,42.60
2022-08-18T09:02:37.663Z,41.90
2022-08-18T09:05:19.861Z,41.70
2022-08-18T09:07:59.085Z,41.40
2022-08-18T09:10:55.248Z,41.50
2022-08-18T09:13:58.707Z,40.90
2022-08-18T09:16:54.112Z,41.20
2022-08-18T09:20:36.064Z,41.30
2022-08-18T09:23:18.448Z,40.80
2022-08-18T09:25:52.537Z,40.30
2022-08-18T09:28:30.785Z,40.10
2022-08-18T09:31:08.678Z,40.30
2022-08-18T09:33:45.871Z,40.40
2022-08-18T09:36:27.997Z,39.80
2022-08-18T09:39:20.583Z,39.50
2022-08-18T09:42:09.391Z,39.40
2022-08-18T09:44:49.178Z,39.30
2022-08-18T09:47:22.282Z,38.90
2022-08-18T09:49:57.778Z,38.30
2022-08-18T09:52:51.356Z,38.30
2022-08-18T09:55:21.050Z,38.50
2022-08-18T09:58:41.609Z,38.50
2022-08-18T10:01:52.159Z,38.70
2022-08-18T10:04:50.698Z,38.00
2022-08-18T10:07:19.910Z,37.50
2022-08-18T10:10:59.487Z,37.50
2022-08-18T10:13:48.884Z,37.80
2022-08-18T10:16:38.261Z,37.80
2022-08-18T10:19:44.686Z,37.80
2022-08-18T10:22:15.933Z,37.90
2022-08-18T10:24:57.173Z,38.40
2022-08-18T10:27:45.651Z,38.60
2022-08-18T10:30:56.205Z,39.00
2022-08-18T10:34:01.735Z,39.70
2022-08-18T10:36:55.037Z,40.40
2022-08-18T10:39:58.419Z,40.50
2022-08-18T10:42:41.260Z,40.40
2022-08-18T10:45:32.493Z,40.60
2022-08-18T10:48:05.414Z,40.90
2022-08-18T10:50:52.927Z,40.70
2022-08-18T10:53:59.589Z,40.80
2022-08-18T10:56:35.814Z,40.70
2022-08-18T11:03:51.373Z,40.80
2022-08-18T11:06:25.990Z,40.40
2022-08-18T11:09:02.157Z,40.20
2022-08-18T11:11:53.206Z,40.30
2022-08-18T11:15:22.356Z,39.60
2022-08-18T11:18:43.470Z,39.90
2022-08-18T11:21:43.580Z,40.10
2022-08-18T11:24:21.208Z,39.10
2022-08-18T11:27:02.662Z,39.40
2022-08-18T11:29:41.496Z,39.20
2022-08-18T11:32:21.130Z,39.10
2022-08-18T11:34:55.282Z,39.20
2022-08-18T11:37:51.638Z,39.30
2022-08-18T11:43:41.667Z,39.40
2022-08-18T11:46:30.639Z,39.40
2022-08-18T11:49:24.128Z,39.20
2022-08-18T11:52:29.604Z,39.30
2022-08-18T11:55:23.989Z,39.20
2022-08-18T11:57:58.996Z,39.10
2022-08-18T12:00:47.036Z,39.00
2022-08-18T12:03:38.289Z,39.20
2022-08-18T12:06:29.850Z,39.20
2022-08-18T12:09:07.778Z,39.30
2022-08-18T12:11:51.425Z,39.30
2022-08-18T12:14:32.723Z,39.50
2022-08-18T12:17:03.391Z,40.00
2022-08-18T12:19:34.534Z,39.10
2022-08-18T12:22:15.625Z,39.20
2022-08-18T12:24:46.833Z,39.00
2022-08-18T12:30:16.418Z,38.90
2022-08-18T12:33:00.800Z,38.90
2022-08-18T12:35:32.023Z,38.90
2022-08-18T12:38:04.987Z,38.80
2022-08-18T12:40:41.900Z,38.80
2022-08-18T12:43:34.496Z,38.60
2022-08-18T12:46:02.513Z,38.00
2022-08-18T12:48:33.899Z,37.50
2022-08-18T12:51:05.742Z,37.20
2022-08-18T12:53:38.194Z,37.20
2022-08-18T12:56:31.940Z,37.20
2022-08-18T12:59:04.219Z,36.90
2022-08-18T13:01:34.796Z,36.80
2022-08-18T13:04:14.076Z,36.60
2022-08-18T13:06:59.889Z,36.50
2022-08-18T13:09:53.944Z,36.50
2022-08-18T13:12:24.081Z,36.70
2022-08-18T13:14:55.243Z,36.90
2022-08-18T13:17:30.188Z,36.70
2022-08-18T13:20:09.874Z,36.30
2022-08-18T13:22:42.038Z,35.60
2022-08-18T13:25:32.397Z,36.00
2022-08-18T13:28:02.930Z,35.40
2022-08-18T13:30:35.565Z,34.80
2022-08-18T13:33:05.550Z,34.40
2022-08-18T13:35:54.570Z,34.00
2022-08-18T13:38:26.107Z,33.70
2022-08-18T13:40:59.874Z,33.90
2022-08-18T13:43:39.588Z,34.00
2022-08-18T13:46:10.192Z,34.20
2022-08-18T13:48:41.776Z,33.60
2022-08-18T13:51:17.766Z,33.40
2022-08-18T13:53:57.613Z,33.60
2022-08-18T13:56:32.313Z,33.70
2022-08-18T13:58:59.914Z,34.10
2022-08-18T14:01:51.706Z,34.70
2022-08-18T14:04:20.514Z,35.30
2022-08-18T14:06:56.328Z,35.30
2022-08-18T14:09:27.862Z,34.70
2022-08-18T14:12:29.636Z,34.60
2022-08-18T14:14:59.996Z,34.90
2022-08-18T14:17:28.208Z,35.20
2022-08-18T14:20:15.269Z,35.10
2022-08-18T14:23:11.614Z,35.20
2022-08-18T14:25:57.608Z,35.20
2022-08-18T14:28:29.132Z,35.00
2022-08-18T14:30:59.753Z,34.10
2022-08-18T14:33:49.556Z,33.70
2022-08-18T14:36:18.247Z,33.30
2022-08-18T14:38:45.772Z,33.10
2022-08-18T14:41:15.090Z,33.10
2022-08-18T14:44:00.495Z,33.30
2022-08-18T14:46:36.202Z,33.20
2022-08-18T14:49:10.895Z,33.20
2022-08-18T14:51:42.894Z,33.40
2022-08-18T14:54:10.715Z,33.60
2022-08-18T14:56:45.357Z,33.60
2022-08-18T14:59:25.676Z,33.90
2022-08-18T15:01:53.492Z,34.80
2022-08-18T15:04:33.631Z,34.00
2022-08-18T15:07:10.508Z,34.00
2022-08-18T15:09:40.889Z,34.10
2022-08-18T15:12:09.767Z,34.10
2022-08-18T15:14:43.427Z,34.10
2022-08-18T15:17:14.625Z,34.20
2022-08-18T15:20:00.556Z,34.20
2022-08-18T15:22:48.083Z,34.10
2022-08-18T15:25:56.490Z,34.10
2022-08-18T15:28:27.153Z,34.00
2022-08-18T15:33:42.476Z,34.10
2022-08-18T15:36:10.401Z,34.10
2022-08-18T15:38:45.351Z,34.20
2022-08-18T15:41:31.595Z,34.30
2022-08-18T15:44:00.879Z,34.70
2022-08-18T15:46:29.496Z,34.70
2022-08-18T15:48:57.576Z,34.60
2022-08-18T15:51:26.071Z,34.50
2022-08-18T15:54:25.339Z,34.20
2022-08-18T15:56:57.595Z,34.10
2022-08-18T15:59:33.206Z,34.00
2022-08-18T16:02:19.122Z,33.60
2022-08-18T16:04:46.700Z,33.40
2022-08-18T16:07:15.743Z,33.30
2022-08-18T16:09:45.277Z,33.50
2022-08-18T16:12:32.586Z,33.60
2022-08-18T16:15:03.859Z,33.70
2022-08-18T16:17:36.648Z,33.40
2022-08-18T16:20:26.956Z,33.10
2022-08-18T16:22:54.561Z,33.40
2022-08-18T16:25:21.981Z,33.50
2022-08-18T16:27:49.637Z,33.70
2022-08-18T16:30:22.939Z,33.80
2022-08-18T16:33:08.571Z,34.10
2022-08-18T16:35:37.962Z,34.70
2022-08-18T16:38:09.119Z,34.70
2022-08-18T16:40:37.698Z,34.10
2022-08-18T16:43:09.240Z,34.20
2022-08-18T16:45:42.831Z,33.80
2022-08-18T16:48:15.198Z,35.50
2022-08-18T16:50:45.497Z,34.80
2022-08-18T16:53:12.840Z,34.50
2022-08-18T16:55:55.835Z,34.30
2022-08-18T16:58:43.168Z,34.40
2022-08-18T17:01:48.916Z,34.50
2022-08-18T17:04:23.375Z,34.40
2022-08-18T17:06:54.062Z,35.50
2022-08-18T17:09:23.406Z,36.00
2022-08-18T17:11:52.450Z,36.10
2022-08-18T17:14:32.165Z,36.30
2022-08-18T17:17:01.077Z,36.90
2022-08-18T17:19:38.030Z,37.10
2022-08-18T17:22:24.428Z,36.50
2022-08-18T17:25:02.017Z,35.90
2022-08-18T17:27:37.630Z,35.90
2022-08-18T17:30:13.570Z,36.10
2022-08-18T17:33:02.643Z,36.40
2022-08-18T17:35:44.520Z,36.50
2022-08-18T17:38:34.132Z,36.40
2022-08-18T17:41:05.672Z,36.50
2022-08-18T17:46:28.154Z,37.10
2022-08-18T17:49:18.160Z,37.50
2022-08-18T17:51:55.338Z,37.60
2022-08-18T17:55:40.175Z,37.60
2022-08-18T17:58:29.345Z,37.70
2022-08-18T18:00:57.509Z,38.00
2022-08-18T18:03:27.764Z,38.50
2022-08-18T18:06:10.101Z,38.60
2022-08-18T18:09:05.235Z,39.10
2022-08-18T18:11:56.907Z,39.50
2022-08-18T18:14:34.872Z,39.80
2022-08-18T18:17:27.927Z,40.20
2022-08-18T18:20:15.601Z,40.00
2022-08-18T18:22:47.335Z,40.60
2022-08-18T18:25:34.330Z,40.60
2022-08-18T18:28:03.195Z,41.00
2022-08-18T18:30:33.032Z,41.60
2022-08-18T18:33:15.232Z,42.00
2022-08-18T18:36:17.491Z,42.40
2022-08-18T18:39:12.099Z,42.50
2022-08-18T18:41:57.750Z,42.80
2022-08-18T18:44:52.493Z,43.10
2022-08-18T18:48:47.379Z,43.20
2022-08-18T18:51:11.078Z,43.50
2022-08-18T18:54:14.168Z,43.60
2022-08-18T18:56:49.449Z,43.40
2022-08-18T18:59:43.532Z,43.30
2022-08-18T19:02:35.070Z,43.40
2022-08-18T19:05:19.079Z,43.40
2022-08-18T19:08:21.925Z,43.20
2022-08-18T19:10:55.264Z,43.20
2022-08-18T19:14:07.348Z,43.30
2022-08-18T19:17:05.557Z,43.30
2022-08-18T19:19:48.808Z,43.30
2022-08-18T19:22:27.770Z,43.60
2022-08-18T19:25:33.889Z,43.40
2022-08-18T19:29:12.480Z,43.60
2022-08-18T19:31:32.655Z,43.60
2022-08-18T19:34:22.815Z,43.70
2022-08-18T19:37:27.397Z,43.90
2022-08-18T19:40:10.424Z,43.90
2022-08-18T19:43:00.299Z,44.00
2022-08-18T19:45:42.927Z,43.80
2022-08-18T19:48:35.221Z,44.20
2022-08-18T19:51:32.484Z,44.30
2022-08-18T19:54:05.757Z,44.30
2022-08-18T19:57:06.563Z,44.30
2022-08-18T20:00:17.135Z,44.60
2022-08-18T20:03:20.575Z,44.90
2022-08-18T20:06:14.182Z,44.60
2022-08-18T20:09:21.595Z,44.60
2022-08-18T20:12:28.184Z,44.60
2022-08-18T20:15:28.851Z,44.90
2022-08-18T20:18:05.049Z,45.60
2022-08-18T20:20:40.602Z,45.10
2022-08-18T20:23:32.731Z,45.10
2022-08-18T20:26:01.634Z,45.10
2022-08-18T20:28:38.846Z,45.50
2022-08-18T20:31:19.206Z,45.50
2022-08-18T20:34:11.065Z,45.60
2022-08-18T20:36:44.504Z,46.00
2022-08-18T20:39:41.992Z,45.60
2022-08-18T20:42:21.596Z,45.70
2022-08-18T20:44:50.022Z,46.10
2022-08-18T20:47:55.634Z,46.40
2022-08-18T20:50:47.777Z,45.90
2022-08-18T20:53:53.905Z,45.80
2022-08-18T20:56:43.045Z,45.90
2022-08-18T20:59:22.609Z,45.80
2022-08-18T21:02:16.921Z,45.90
2022-08-18T21:04:44.320Z,45.90
2022-08-18T21:07:35.838Z,45.70
2022-08-18T21:10:20.758Z,45.60
2022-08-18T21:12:54.400Z,45.50
2022-08-18T21:15:26.656Z,45.50
2022-08-18T21:18:04.327Z,45.30
2022-08-18T21:20:33.453Z,45.40
2022-08-18T21:23:11.220Z,45.30
2022-08-18T21:25:49.640Z,45.50
2022-08-18T21:28:18.182Z,45.40
2022-08-18T21:31:41.890Z,45.40
2022-08-18T21:33:55.624Z,45.40
2022-08-18T21:36:25.653Z,45.20
2022-08-18T21:39:05.462Z,45.20
2022-08-18T21:41:41.804Z,45.20
2022-08-18T21:44:21.774Z,45.20
2022-08-18T21:46:50.051Z,45.10
2022-08-18T21:49:27.539Z,45.10
2022-08-18T21:51:54.839Z,45.00
2022-08-18T21:54:25.428Z,45.00
2022-08-18T21:57:23.153Z,45.10
2022-08-18T22:00:15.033Z,45.10
2022-08-18T22:02:42.182Z,45.20
2022-08-18T22:05:11.942Z,45.20
2022-08-18T22:07:48.911Z,45.20
2022-08-18T22:10:45.257Z,45.40
2022-08-18T22:13:40.461Z,45.30
2022-08-18T22:16:28.001Z,45.20
2022-08-18T22:19:20.380Z,45.30
2022-08-18T22:22:27.624Z,45.20
2022-08-18T22:24:59.741Z,45.30
2022-08-18T22:27:27.380Z,45.30
2022-08-18T22:30:08.075Z,45.40
2022-08-18T22:32:39.168Z,45.50
2022-08-18T22:35:08.057Z,45.60
2022-08-18T22:37:46.293Z,45.60
2022-08-18T22:40:16.467Z,45.70
2022-08-18T22:42:49.273Z,45.70
2022-08-18T22:45:16.620Z,45.60
2022-08-18T22:47:45.112Z,45.90
2022-08-18T22:50:13.397Z,45.80
2022-08-18T22:52:44.788Z,45.90
2022-08-18T22:55:14.388Z,45.90
2022-08-18T22:57:42.792Z,46.00
2022-08-18T23:00:34.605Z,46.00
2022-08-18T23:03:09.864Z,46.20
2022-08-18T23:05:39.649Z,46.20
2022-08-18T23:08:07.773Z,46.10
2022-08-18T23:10:35.494Z,46.10
2022-08-18T23:13:04.521Z,46.10
2022-08-18T23:15:49.312Z,46.70
2022-08-18T23:18:19.648Z,46.50
2022-08-18T23:21:00.193Z,46.50
2022-08-18T23:23:28.881Z,46.80
2022-08-18T23:25:58.231Z,46.50
2022-08-18T23:28:27.270Z,46.70
2022-08-18T23:30:56.732Z,46.70
2022-08-18T23:33:26.099Z,46.70
2022-08-18T23:35:54.195Z,46.90
2022-08-18T23:38:21.626Z,47.10
2022-08-18T23:40:59.775Z,47.00
2022-08-18T23:43:27.140Z,47.00
2022-08-18T23:45:57.455Z,47.10
2022-08-18T23:48:24.582Z,47.30
2022-08-18T23:50:51.762Z,47.30
2022-08-18T23:53:19.008Z,47.30
2022-08-18T23:55:46.227Z,47.40
2022-08-18T23:58:13.338Z,47.60
